createdAt,value
2023-05-21T00:01:16.809Z,16.65
2023-05-21T00:03:44.960Z,15.38
2023-05-21T00:06:12.020Z,16.15
2023-05-21T00:08:38.623Z,17.13
2023-05-21T00:11:05.284Z,16.85
2023-05-21T00:13:31.738Z,16.97
2023-05-21T00:15:58.359Z,17.40
2023-05-21T00:18:24.942Z,17.33
2023-05-21T00:20:52.958Z,17.60
2023-05-21T00:23:19.483Z,15.95
2023-05-21T00:25:46.156Z,17.35
2023-05-21T00:28:12.711Z,18.70
2023-05-21T00:30:39.224Z,18.00
2023-05-21T00:33:05.773Z,19.23
2023-05-21T00:35:32.295Z,17.77
2023-05-21T00:38:00.600Z,18.23
2023-05-21T00:40:27.170Z,19.13
2023-05-21T00:42:53.927Z,18.53
2023-05-21T00:45:20.553Z,18.80
2023-05-21T00:47:47.198Z,19.92
2023-05-21T00:50:14.327Z,18.87
2023-05-21T00:52:41.333Z,18.60
2023-05-21T00:55:10.215Z,18.75
2023-05-21T00:57:37.274Z,19.60
2023-05-21T01:00:05.407Z,19.02
2023-05-21T01:02:31.936Z,18.67
2023-05-21T01:04:58.620Z,18.60
2023-05-21T01:07:25.104Z,21.77
2023-05-21T01:09:52.101Z,18.70
2023-05-21T01:12:21.315Z,19.25
2023-05-21T01:14:48.397Z,19.73
2023-05-21T01:17:15.974Z,20.98
2023-05-21T01:22:12.779Z,20.27
2023-05-21T01:24:40.619Z,21.00
2023-05-21T01:27:07.167Z,19.60
2023-05-21T01:29:33.888Z,19.60
2023-05-21T01:32:15.011Z,19.75
2023-05-21T01:34:49.952Z,22.00
2023-05-21T01:37:22.627Z,19.92
2023-05-21T01:39:55.449Z,20.17
2023-05-21T01:42:23.555Z,19.45
2023-05-21T01:44:52.275Z,20.13
2023-05-21T01:47:19.948Z,22.23
2023-05-21T01:49:46.738Z,21.60
2023-05-21T01:52:13.395Z,22.30
2023-05-21T01:54:39.910Z,21.90
2023-05-21T01:57:07.780Z,21.85
2023-05-21T01:59:34.877Z,22.02
2023-05-21T02:02:01.637Z,22.10
2023-05-21T02:04:28.240Z,21.90
2023-05-21T02:06:54.817Z,22.13
2023-05-21T02:09:21.334Z,22.97
2023-05-21T02:11:47.803Z,21.95
2023-05-21T02:14:15.752Z,22.75
2023-05-21T02:16:42.657Z,23.17
2023-05-21T02:19:09.243Z,21.67
2023-05-21T02:21:36.086Z,22.37
2023-05-21T02:24:02.711Z,23.88
2023-05-21T02:26:29.222Z,22.43
2023-05-21T02:28:55.697Z,22.25
2023-05-21T02:31:23.584Z,22.90
2023-05-21T02:33:50.146Z,20.35
2023-05-21T02:36:16.724Z,21.97
2023-05-21T02:38:43.260Z,20.70
2023-05-21T02:41:10.189Z,22.63
2023-05-21T02:43:36.715Z,23.65
2023-05-21T02:46:04.901Z,22.55
2023-05-21T02:48:32.905Z,22.05
2023-05-21T02:50:59.390Z,23.05
2023-05-21T02:53:25.920Z,21.52
2023-05-21T02:55:52.419Z,22.05
2023-05-21T02:58:18.953Z,23.65
2023-05-21T03:00:45.436Z,23.40
2023-05-21T03:03:12.006Z,24.58
2023-05-21T03:05:39.955Z,24.43
2023-05-21T03:08:06.452Z,23.15
2023-05-21T03:10:33.000Z,22.40
2023-05-21T03:12:59.527Z,23.77
2023-05-21T03:15:26.185Z,24.50
2023-05-21T03:17:52.692Z,22.40
2023-05-21T03:20:19.443Z,23.40
2023-05-21T03:22:47.346Z,23.67
2023-05-21T03:25:14.562Z,23.33
2023-05-21T03:27:41.147Z,24.58
2023-05-21T03:30:08.522Z,26.73
2023-05-21T03:32:35.255Z,26.95
2023-05-21T03:35:01.773Z,24.53
2023-05-21T03:37:28.268Z,24.02
2023-05-21T03:39:56.081Z,23.13
2023-05-21T03:42:22.565Z,24.67
2023-05-21T03:44:49.127Z,24.00
2023-05-21T03:47:15.965Z,25.05
2023-05-21T03:49:42.494Z,23.02
2023-05-21T03:52:09.107Z,25.08
2023-05-21T03:54:35.608Z,25.47
2023-05-21T03:57:03.678Z,24.08
2023-05-21T03:59:30.213Z,25.80
2023-05-21T04:01:56.692Z,25.38
2023-05-21T04:04:23.290Z,25.42
2023-05-21T04:06:50.896Z,25.13
2023-05-21T04:09:17.400Z,25.38
2023-05-21T04:11:43.954Z,26.35
2023-05-21T04:14:11.793Z,26.48
2023-05-21T04:16:38.435Z,26.60
2023-05-21T04:19:05.065Z,25.83
2023-05-21T04:21:31.549Z,23.30
2023-05-21T04:23:58.271Z,25.67
2023-05-21T04:26:24.737Z,27.30
2023-05-21T04:28:51.234Z,25.25
2023-05-21T04:31:19.154Z,25.30
2023-05-21T04:33:45.699Z,25.27
2023-05-21T04:36:12.381Z,25.40
2023-05-21T04:38:38.896Z,24.47
2023-05-21T04:41:05.458Z,24.42
2023-05-21T04:43:31.967Z,26.23
2023-05-21T04:45:58.453Z,27.17
2023-05-21T04:48:26.271Z,24.65
2023-05-21T04:50:52.912Z,25.63
2023-05-21T04:53:19.476Z,23.40
2023-05-21T04:55:46.256Z,23.42
2023-05-21T04:58:12.841Z,25.60
2023-05-21T05:00:39.670Z,21.73
2023-05-21T05:03:06.289Z,22.73
2023-05-21T05:05:34.312Z,24.43
2023-05-21T05:08:01.108Z,24.17
2023-05-21T05:10:27.577Z,23.30
2023-05-21T05:12:54.065Z,24.58
2023-05-21T05:15:20.521Z,24.17
2023-05-21T05:17:47.129Z,23.25
2023-05-21T05:20:13.638Z,24.10
2023-05-21T05:22:41.461Z,22.85
2023-05-21T05:25:08.684Z,23.83
2023-05-21T05:27:37.807Z,23.33
2023-05-21T05:30:06.350Z,23.00
2023-05-21T05:32:32.875Z,23.52
2023-05-21T05:35:01.062Z,24.00
2023-05-21T05:37:28.838Z,22.77
2023-05-21T05:39:56.640Z,22.70
2023-05-21T05:42:23.286Z,23.17
2023-05-21T05:44:49.843Z,23.17
2023-05-21T05:47:16.640Z,23.45
2023-05-21T05:49:43.122Z,25.58
2023-05-21T05:52:09.610Z,24.27
2023-05-21T05:54:36.131Z,22.42
2023-05-21T05:57:04.561Z,21.10
2023-05-21T05:59:31.102Z,23.52
2023-05-21T06:01:57.596Z,24.50
2023-05-21T06:04:24.166Z,22.70
2023-05-21T06:06:50.673Z,20.97
2023-05-21T06:09:17.151Z,22.17
2023-05-21T06:11:43.716Z,21.08
2023-05-21T06:14:11.581Z,22.70
2023-05-21T06:16:38.292Z,20.15
2023-05-21T06:19:04.913Z,21.85
2023-05-21T06:21:31.591Z,21.00
2023-05-21T06:23:58.136Z,21.40
2023-05-21T06:26:24.757Z,21.17
2023-05-21T06:28:51.333Z,21.42
2023-05-21T06:31:19.216Z,22.40
2023-05-21T06:33:45.888Z,20.25
2023-05-21T06:36:12.448Z,22.27
2023-05-21T06:38:39.083Z,20.10
2023-05-21T06:41:05.760Z,20.50
2023-05-21T06:43:32.303Z,19.43
2023-05-21T06:45:58.866Z,20.77
2023-05-21T06:48:26.772Z,18.97
2023-05-21T06:50:53.293Z,18.85
2023-05-21T06:53:19.775Z,20.65
2023-05-21T06:55:46.366Z,18.43
2023-05-21T06:58:12.859Z,19.20
2023-05-21T07:00:39.366Z,20.08
2023-05-21T07:03:06.002Z,18.33
2023-05-21T07:05:34.293Z,17.17
2023-05-21T07:08:00.832Z,17.00
2023-05-21T07:10:27.358Z,19.17
2023-05-21T07:12:53.836Z,16.92
2023-05-21T07:15:20.594Z,17.60
2023-05-21T07:17:47.097Z,16.20
2023-05-21T07:20:13.867Z,15.77
2023-05-21T07:22:41.732Z,16.30
2023-05-21T07:25:09.300Z,16.02
2023-05-21T07:27:35.889Z,14.63
2023-05-21T07:30:02.454Z,13.37
2023-05-21T07:32:29.112Z,14.20
2023-05-21T07:34:56.042Z,13.40
2023-05-21T07:37:22.581Z,13.30
2023-05-21T07:39:50.422Z,8.93
2023-05-21T07:42:16.935Z,13.75
2023-05-21T07:44:43.420Z,12.60
2023-05-21T07:47:09.994Z,13.50
2023-05-21T07:49:36.501Z,11.87
2023-05-21T07:52:03.116Z,12.40
2023-05-21T07:54:29.669Z,13.37
2023-05-21T07:56:57.609Z,12.37
2023-05-21T07:59:24.695Z,13.30
2023-05-21T08:01:51.342Z,11.98
2023-05-21T08:04:17.953Z,11.73
2023-05-21T08:06:44.571Z,11.35
2023-05-21T08:09:11.145Z,11.57
2023-05-21T08:11:38.023Z,7.60
2023-05-21T08:14:06.238Z,11.07
2023-05-21T08:16:32.886Z,10.07
2023-05-21T08:18:59.543Z,9.57
2023-05-21T08:21:26.158Z,10.20
2023-05-21T08:23:52.729Z,10.57
2023-05-21T08:26:19.356Z,10.20
2023-05-21T08:28:45.872Z,10.02
2023-05-21T08:31:13.770Z,9.70
2023-05-21T08:33:40.268Z,9.15
2023-05-21T08:36:07.331Z,9.90
2023-05-21T08:38:34.198Z,9.90
2023-05-21T08:41:00.942Z,9.38
2023-05-21T08:43:27.801Z,9.50
2023-05-21T08:45:55.852Z,8.90
2023-05-21T08:48:23.926Z,9.25
2023-05-21T08:50:51.992Z,10.02
2023-05-21T08:53:27.402Z,9.63
2023-05-21T08:55:56.057Z,9.88
2023-05-21T08:58:22.824Z,8.57
2023-05-21T09:00:49.554Z,10.25
2023-05-21T09:03:16.409Z,9.18
2023-05-21T09:05:45.437Z,8.73
2023-05-21T09:08:16.708Z,9.45
2023-05-21T09:10:48.061Z,8.65
2023-05-21T09:13:16.170Z,8.38
2023-05-21T09:15:42.776Z,8.93
2023-05-21T09:18:09.340Z,8.07
2023-05-21T09:20:35.887Z,8.45
2023-05-21T09:23:04.924Z,8.98
2023-05-21T09:25:31.746Z,8.88
2023-05-21T09:27:58.731Z,9.13
2023-05-21T09:32:57.752Z,8.10
2023-05-21T09:35:24.362Z,9.35
2023-05-21T09:37:53.258Z,8.38
2023-05-21T09:40:22.719Z,8.18
2023-05-21T09:42:50.700Z,9.80
2023-05-21T09:45:21.221Z,9.75
2023-05-21T09:47:48.602Z,8.70
2023-05-21T09:50:18.850Z,8.90
2023-05-21T09:52:45.548Z,8.98
2023-05-21T09:55:13.736Z,8.82
2023-05-21T09:57:42.153Z,9.77
2023-05-21T10:00:09.909Z,8.10
2023-05-21T10:02:37.905Z,8.40
2023-05-21T10:05:08.620Z,8.02
2023-05-21T10:07:36.298Z,8.48
2023-05-21T10:10:04.284Z,8.73
2023-05-21T10:12:32.625Z,8.30
2023-05-21T10:15:03.546Z,8.73
2023-05-21T10:17:30.721Z,8.68
2023-05-21T10:19:59.339Z,9.02
2023-05-21T10:22:25.907Z,8.50
2023-05-21T10:24:52.547Z,9.32
2023-05-21T10:27:19.736Z,8.98
2023-05-21T10:29:46.526Z,8.60
2023-05-21T10:34:43.642Z,7.57
2023-05-21T10:37:12.921Z,8.25
2023-05-21T10:39:39.950Z,8.60
2023-05-21T10:42:18.606Z,8.35
2023-05-21T10:45:00.699Z,7.93
2023-05-21T10:47:46.789Z,8.18
2023-05-21T10:50:39.692Z,8.52
2023-05-21T10:53:16.154Z,8.82
2023-05-21T10:55:54.121Z,9.07
2023-05-21T10:58:45.513Z,8.43
2023-05-21T11:01:12.891Z,8.73
2023-05-21T11:03:41.012Z,7.93
2023-05-21T11:06:07.593Z,8.18
2023-05-21T11:08:34.195Z,7.57
2023-05-21T11:11:00.739Z,7.40
2023-05-21T11:13:28.172Z,7.45
2023-05-21T11:16:07.576Z,6.38
2023-05-21T11:19:00.954Z,7.85
2023-05-21T11:21:33.603Z,7.47
2023-05-21T11:24:02.476Z,8.00
2023-05-21T11:26:30.490Z,7.50
2023-05-21T11:29:07.851Z,7.90
2023-05-21T11:31:35.709Z,8.18
2023-05-21T11:34:19.965Z,7.10
2023-05-21T11:36:47.859Z,8.73
2023-05-21T11:39:15.528Z,8.02
2023-05-21T11:41:57.592Z,9.35
2023-05-21T11:44:40.062Z,8.80
2023-05-21T11:47:07.861Z,8.88
2023-05-21T11:49:36.645Z,8.75
2023-05-21T11:52:04.450Z,8.73
2023-05-21T11:54:32.957Z,8.43
2023-05-21T11:56:59.869Z,8.48
2023-05-21T11:59:26.396Z,8.05
2023-05-21T12:01:52.913Z,8.18
2023-05-21T12:04:19.406Z,8.52
2023-05-21T12:06:47.271Z,8.27
2023-05-21T12:09:13.862Z,7.05
2023-05-21T12:11:40.811Z,7.75
2023-05-21T12:14:07.860Z,7.20
2023-05-21T12:16:34.624Z,6.75
2023-05-21T12:19:02.043Z,7.25
2023-05-21T12:21:29.107Z,7.22
2023-05-21T12:23:57.010Z,7.20
2023-05-21T12:26:23.981Z,7.15
2023-05-21T12:28:51.513Z,6.60
2023-05-21T12:31:18.276Z,7.55
2023-05-21T12:33:45.153Z,7.70
2023-05-21T12:36:21.585Z,7.57
2023-05-21T12:38:48.170Z,7.25
2023-05-21T12:41:16.348Z,8.65
2023-05-21T12:43:42.948Z,7.50
2023-05-21T12:46:11.151Z,7.72
2023-05-21T12:48:37.920Z,8.00
2023-05-21T12:51:04.902Z,7.63
2023-05-21T12:53:36.651Z,8.05
2023-05-21T12:56:08.834Z,7.57
2023-05-21T12:58:36.860Z,7.25
2023-05-21T13:01:06.107Z,7.15
2023-05-21T13:03:32.727Z,7.28
2023-05-21T13:05:59.396Z,7.72
2023-05-21T13:08:25.904Z,8.10
2023-05-21T13:10:52.437Z,8.57
2023-05-21T13:13:19.016Z,7.78
2023-05-21T13:15:46.932Z,8.52
2023-05-21T13:18:13.517Z,7.97
2023-05-21T13:20:40.057Z,8.32
2023-05-21T13:23:08.337Z,8.93
2023-05-21T13:25:36.342Z,8.77
2023-05-21T13:28:03.863Z,7.87
2023-05-21T13:30:30.681Z,7.78
2023-05-21T13:32:58.993Z,7.63
2023-05-21T13:35:25.565Z,10.27
2023-05-21T13:37:52.143Z,9.50
2023-05-21T13:40:18.803Z,8.32
2023-05-21T13:42:47.696Z,8.07
2023-05-21T13:45:15.707Z,8.38
2023-05-21T13:47:43.067Z,6.72
2023-05-21T13:50:12.023Z,7.47
2023-05-21T13:52:38.587Z,7.03
2023-05-21T13:55:06.234Z,8.30
2023-05-21T13:57:32.822Z,7.75
2023-05-21T13:59:59.715Z,7.55
2023-05-21T14:02:26.796Z,8.35
2023-05-21T14:04:53.482Z,7.28
2023-05-21T14:07:21.352Z,8.00
2023-05-21T14:09:47.956Z,7.47
2023-05-21T14:12:14.456Z,7.53
2023-05-21T14:14:41.081Z,6.40
2023-05-21T14:17:07.589Z,6.63
2023-05-21T14:19:34.230Z,9.80
2023-05-21T14:22:00.764Z,6.45
2023-05-21T14:24:28.594Z,6.20
2023-05-21T14:26:55.107Z,6.13
2023-05-21T14:29:21.609Z,6.33
2023-05-21T14:31:48.132Z,6.57
2023-05-21T14:34:14.665Z,6.33
2023-05-21T14:36:41.172Z,7.15
2023-05-21T14:39:07.668Z,6.13
2023-05-21T14:41:38.583Z,6.80
2023-05-21T14:44:05.079Z,6.25
2023-05-21T14:46:31.760Z,6.20
2023-05-21T14:48:58.416Z,5.63
2023-05-21T14:51:24.964Z,6.15
2023-05-21T14:53:51.475Z,6.30
2023-05-21T14:56:17.961Z,6.37
2023-05-21T14:58:45.787Z,5.90
2023-05-21T15:01:12.379Z,6.88
2023-05-21T15:03:38.977Z,6.25
2023-05-21T15:06:05.547Z,5.20
2023-05-21T15:08:32.101Z,5.63
2023-05-21T15:10:58.581Z,6.10
2023-05-21T15:13:25.051Z,5.33
2023-05-21T15:15:52.969Z,5.67
2023-05-21T15:18:19.476Z,5.57
2023-05-21T15:20:45.937Z,5.07
2023-05-21T15:23:17.323Z,5.23
2023-05-21T15:25:44.427Z,5.10
2023-05-21T15:28:11.103Z,5.40
2023-05-21T15:30:37.617Z,5.18
2023-05-21T15:33:05.462Z,4.85
2023-05-21T15:35:32.065Z,5.32
2023-05-21T15:37:58.620Z,5.00
2023-05-21T15:40:26.873Z,4.73
2023-05-21T15:42:53.879Z,4.60
2023-05-21T15:45:20.606Z,4.95
2023-05-21T15:47:47.295Z,6.43
2023-05-21T15:50:15.368Z,4.78
2023-05-21T15:52:42.272Z,4.43
2023-05-21T15:55:09.629Z,4.25
2023-05-21T16:00:02.672Z,4.55
2023-05-21T16:02:29.229Z,4.68
2023-05-21T16:04:55.773Z,4.00
2023-05-21T16:07:24.200Z,4.37
2023-05-21T16:09:50.673Z,4.80
2023-05-21T16:12:17.382Z,4.50
2023-05-21T16:14:43.871Z,4.15
2023-05-21T16:17:10.471Z,3.73
2023-05-21T16:19:37.156Z,3.55
2023-05-21T16:22:03.924Z,3.08
2023-05-21T16:24:31.801Z,4.70
2023-05-21T16:26:58.299Z,3.80
2023-05-21T16:29:24.801Z,3.80
2023-05-21T16:31:51.351Z,4.33
2023-05-21T16:34:17.841Z,4.33
2023-05-21T16:36:44.336Z,3.80
2023-05-21T16:39:10.838Z,4.30
2023-05-21T16:41:38.689Z,2.80
2023-05-21T16:44:05.203Z,3.10
2023-05-21T16:46:31.720Z,3.17
2023-05-21T16:48:58.261Z,3.60
2023-05-21T16:51:24.786Z,2.97
2023-05-21T16:53:51.306Z,3.53
2023-05-21T16:56:17.970Z,3.33
2023-05-21T16:58:45.817Z,3.53
2023-05-21T17:01:12.542Z,3.13
2023-05-21T17:03:41.004Z,3.15
2023-05-21T17:06:09.598Z,2.90
2023-05-21T17:08:36.105Z,3.13
2023-05-21T17:11:02.661Z,3.00
2023-05-21T17:13:29.175Z,2.10
2023-05-21T17:15:57.050Z,2.97
2023-05-21T17:18:23.591Z,5.53
2023-05-21T17:20:50.256Z,5.40
2023-05-21T17:23:16.804Z,6.28
2023-05-21T17:25:43.558Z,6.30
2023-05-21T17:28:10.225Z,6.43
2023-05-21T17:30:36.727Z,6.83
2023-05-21T17:33:04.628Z,7.40
2023-05-21T17:35:31.170Z,6.72
2023-05-21T17:37:57.697Z,7.63
2023-05-21T17:40:24.229Z,6.83
2023-05-21T17:42:50.952Z,6.93
2023-05-21T17:45:17.498Z,7.15
2023-05-21T17:47:44.084Z,7.20
2023-05-21T17:50:12.025Z,6.73
2023-05-21T17:52:38.524Z,7.35
2023-05-21T17:55:05.667Z,7.17
2023-05-21T17:57:32.131Z,7.90
2023-05-21T17:59:58.652Z,7.43
2023-05-21T18:02:25.157Z,7.47
2023-05-21T18:04:51.657Z,5.67
2023-05-21T18:07:19.476Z,8.13
2023-05-21T18:09:45.981Z,7.80
2023-05-21T18:12:12.490Z,7.27
2023-05-21T18:14:39.176Z,6.63
2023-05-21T18:17:05.782Z,7.70
2023-05-21T18:19:32.507Z,7.83
2023-05-21T18:21:59.002Z,7.80
2023-05-21T18:24:26.850Z,7.55
2023-05-21T18:26:53.344Z,8.35
2023-05-21T18:29:19.870Z,8.90
2023-05-21T18:31:46.524Z,8.40
2023-05-21T18:34:13.031Z,8.87
2023-05-21T18:36:39.514Z,7.65
2023-05-21T18:39:06.721Z,8.13
2023-05-21T18:41:34.781Z,7.63
2023-05-21T18:44:01.366Z,7.93
2023-05-21T18:46:28.081Z,7.77
2023-05-21T18:48:54.762Z,8.38
2023-05-21T18:51:21.345Z,9.65
2023-05-21T18:53:47.906Z,9.02
2023-05-21T18:56:14.426Z,7.73
2023-05-21T18:58:42.267Z,7.90
2023-05-21T19:01:08.814Z,9.80
2023-05-21T19:03:35.552Z,8.23
2023-05-21T19:06:02.083Z,9.35
2023-05-21T19:08:28.585Z,8.88
2023-05-21T19:10:55.233Z,7.88
2023-05-21T19:13:22.676Z,9.27
2023-05-21T19:18:17.025Z,9.13
2023-05-21T19:20:43.553Z,8.87
2023-05-21T19:23:10.122Z,9.02
2023-05-21T19:25:36.676Z,8.93
2023-05-21T19:28:03.289Z,8.57
2023-05-21T19:30:29.774Z,8.33
2023-05-21T19:32:57.694Z,9.65
2023-05-21T19:35:24.213Z,9.57
2023-05-21T19:37:50.710Z,10.18
2023-05-21T19:40:17.308Z,9.75
2023-05-21T19:42:44.326Z,9.90
2023-05-21T19:45:10.986Z,9.15
2023-05-21T19:47:37.527Z,10.50
2023-05-21T19:50:06.908Z,9.37
2023-05-21T19:52:33.374Z,9.43
2023-05-21T19:55:00.008Z,9.02
2023-05-21T19:57:26.490Z,9.13
2023-05-21T19:59:52.995Z,9.07
2023-05-21T20:02:19.500Z,9.85
2023-05-21T20:04:46.160Z,9.77
2023-05-21T20:07:13.967Z,9.70
2023-05-21T20:09:40.531Z,9.07
2023-05-21T20:12:08.181Z,10.23
2023-05-21T20:14:34.981Z,9.90
2023-05-21T20:17:01.670Z,10.57
2023-05-21T20:19:28.251Z,10.68
2023-05-21T20:21:54.888Z,10.40
2023-05-21T20:24:22.763Z,11.67
2023-05-21T20:26:49.362Z,10.73
2023-05-21T20:29:15.941Z,10.37
2023-05-21T20:31:42.411Z,10.90
2023-05-21T20:34:08.890Z,9.82
2023-05-21T20:36:35.844Z,10.60
2023-05-21T20:39:02.456Z,12.23
2023-05-21T20:41:30.447Z,11.10
2023-05-21T20:43:56.918Z,12.48
2023-05-21T20:46:23.483Z,10.80
2023-05-21T20:48:50.011Z,10.73
2023-05-21T20:51:16.760Z,11.95
2023-05-21T20:53:43.313Z,10.77
2023-05-21T20:56:09.810Z,11.85
2023-05-21T20:58:37.728Z,11.32
2023-05-21T21:01:04.322Z,11.77
2023-05-21T21:03:30.938Z,12.13
2023-05-21T21:05:57.533Z,11.00
2023-05-21T21:08:24.029Z,11.82
2023-05-21T21:10:50.543Z,11.40
2023-05-21T21:13:17.115Z,12.05
2023-05-21T21:15:45.110Z,11.85
2023-05-21T21:18:11.833Z,11.10
2023-05-21T21:20:38.595Z,10.80
2023-05-21T21:23:05.270Z,11.15
2023-05-21T21:25:31.762Z,11.23
2023-05-21T21:27:58.262Z,10.95
2023-05-21T21:30:24.773Z,11.68
2023-05-21T21:32:53.193Z,11.25
2023-05-21T21:35:19.836Z,11.70
2023-05-21T21:37:46.358Z,12.30
2023-05-21T21:40:13.898Z,11.63
2023-05-21T21:42:41.983Z,11.27
2023-05-21T21:45:09.555Z,12.35
2023-05-21T21:47:36.225Z,11.25
2023-05-21T21:50:04.755Z,11.18
2023-05-21T21:52:31.255Z,12.10
2023-05-21T21:54:57.930Z,12.63
2023-05-21T21:57:24.970Z,11.13
2023-05-21T21:59:51.538Z,12.48
2023-05-21T22:02:18.103Z,11.57
2023-05-21T22:04:44.796Z,11.90
2023-05-21T22:07:12.670Z,13.20
2023-05-21T22:09:39.200Z,11.73
2023-05-21T22:12:06.570Z,12.25
2023-05-21T22:14:33.154Z,11.32
2023-05-21T22:16:59.697Z,11.77
2023-05-21T22:19:26.594Z,12.77
2023-05-21T22:21:53.110Z,13.25
2023-05-21T22:24:31.460Z,11.98
2023-05-21T22:26:58.809Z,12.65
2023-05-21T22:29:25.394Z,12.30
2023-05-21T22:31:52.115Z,12.18
2023-05-21T22:34:18.581Z,12.48
2023-05-21T22:36:46.212Z,12.80
2023-05-21T22:41:40.405Z,12.50
2023-05-21T22:44:06.877Z,12.63
2023-05-21T22:46:33.424Z,12.20
2023-05-21T22:48:59.942Z,13.52
2023-05-21T22:51:26.472Z,12.07
2023-05-21T22:53:52.943Z,12.65
2023-05-21T22:56:19.484Z,12.38
2023-05-21T22:58:47.538Z,12.98
2023-05-21T23:01:14.427Z,13.32
2023-05-21T23:03:41.135Z,12.65
2023-05-21T23:06:08.088Z,13.30
2023-05-21T23:08:34.766Z,13.00
2023-05-21T23:11:01.625Z,13.03
2023-05-21T23:13:28.111Z,13.48
2023-05-21T23:15:56.030Z,13.70
2023-05-21T23:18:22.563Z,13.05
2023-05-21T23:20:49.110Z,13.68
2023-05-21T23:23:15.772Z,12.95
2023-05-21T23:25:42.273Z,12.77
2023-05-21T23:28:09.168Z,12.55
2023-05-21T23:30:35.657Z,11.60
2023-05-21T23:33:03.711Z,13.15
2023-05-21T23:35:30.263Z,13.35
2023-05-21T23:37:56.764Z,12.75
2023-05-21T23:40:23.475Z,12.63
2023-05-21T23:42:49.984Z,13.50
2023-05-21T23:45:16.654Z,12.85
2023-05-21T23:47:43.243Z,13.30
2023-05-21T23:50:11.226Z,12.93
2023-05-21T23:52:37.724Z,13.55
2023-05-21T23:55:04.622Z,13.93
2023-05-21T23:57:31.124Z,13.43
2023-05-21T23:59:57.608Z,13.50
